sensor_id;sensor_type;location;lat;lon;timestamp;pressure;altitude;pressure_sealevel;temperature;humidity
64453;BME280;50813;52.654;6.766;2023-04-26T00:00:44;101775.0;;;4.16;94.34
64453;BME280;50813;52.654;6.766;2023-04-26T00:02:20;101777.0;;;4.13;93.87
64453;BME280;50813;52.654;6.766;2023-04-26T00:03:56;101781.0;;;4.1;94.73
64453;BME280;50813;52.654;6.766;2023-04-26T00:07:08;101784.0;;;4.04;94.38
64453;BME280;50813;52.654;6.766;2023-04-26T00:08:45;101780.0;;;4.07;94.66
64453;BME280;50813;52.654;6.766;2023-04-26T00:10:21;101782.0;;;4.04;94.62
64453;BME280;50813;52.654;6.766;2023-04-26T00:13:34;101780.0;;;4.0;95.5
64453;BME280;50813;52.654;6.766;2023-04-26T00:15:10;101782.0;;;3.94;94.86
64453;BME280;50813;52.654;6.766;2023-04-26T00:16:46;101781.0;;;4.03;95.0
64453;BME280;50813;52.654;6.766;2023-04-26T00:18:23;101784.0;;;3.96;94.88
64453;BME280;50813;52.654;6.766;2023-04-26T00:21:35;101785.0;;;3.91;95.36
64453;BME280;50813;52.654;6.766;2023-04-26T00:23:12;101782.0;;;3.89;95.43
64453;BME280;50813;52.654;6.766;2023-04-26T00:24:48;101782.0;;;3.87;95.31
64453;BME280;50813;52.654;6.766;2023-04-26T00:28:00;101782.0;;;3.91;95.9
64453;BME280;50813;52.654;6.766;2023-04-26T00:29:36;101784.0;;;3.86;95.82
64453;BME280;50813;52.654;6.766;2023-04-26T00:31:13;101780.0;;;3.91;95.42
64453;BME280;50813;52.654;6.766;2023-04-26T00:34:30;101780.0;;;3.92;95.41
64453;BME280;50813;52.654;6.766;2023-04-26T00:36:07;101780.0;;;3.9;95.4
64453;BME280;50813;52.654;6.766;2023-04-26T00:37:43;101780.0;;;4.0;95.47
64453;BME280;50813;52.654;6.766;2023-04-26T00:39:19;101783.0;;;3.92;95.16
64453;BME280;50813;52.654;6.766;2023-04-26T00:42:31;101784.0;;;3.93;95.7
64453;BME280;50813;52.654;6.766;2023-04-26T00:44:07;101777.0;;;3.85;95.96
64453;BME280;50813;52.654;6.766;2023-04-26T00:45:44;101777.0;;;3.92;95.66
64453;BME280;50813;52.654;6.766;2023-04-26T00:48:56;101778.0;;;3.91;95.43
64453;BME280;50813;52.654;6.766;2023-04-26T00:50:32;101781.0;;;3.92;96.17
64453;BME280;50813;52.654;6.766;2023-04-26T00:52:09;101778.0;;;3.94;96.21
64453;BME280;50813;52.654;6.766;2023-04-26T00:55:22;101772.0;;;3.91;95.76
64453;BME280;50813;52.654;6.766;2023-04-26T00:57:00;101776.0;;;3.91;95.78
64453;BME280;50813;52.654;6.766;2023-04-26T00:58:37;101774.0;;;4.01;95.79
64453;BME280;50813;52.654;6.766;2023-04-26T01:00:14;101775.0;;;3.96;96.38
64453;BME280;50813;52.654;6.766;2023-04-26T01:03:26;101773.0;;;4.04;96.58
64453;BME280;50813;52.654;6.766;2023-04-26T01:05:04;101770.0;;;4.13;96.1
64453;BME280;50813;52.654;6.766;2023-04-26T01:06:39;101773.0;;;4.07;96.94
64453;BME280;50813;52.654;6.766;2023-04-26T01:09:54;101768.0;;;4.1;96.76
64453;BME280;50813;52.654;6.766;2023-04-26T01:11:31;101769.0;;;4.26;96.43
64453;BME280;50813;52.654;6.766;2023-04-26T01:13:08;101766.0;;;4.16;96.96
64453;BME280;50813;52.654;6.766;2023-04-26T01:14:45;101763.0;;;4.24;96.32
64453;BME280;50813;52.654;6.766;2023-04-26T01:17:59;101763.0;;;4.24;96.8
64453;BME280;50813;52.654;6.766;2023-04-26T01:19:34;101768.0;;;4.25;97.23
64453;BME280;50813;52.654;6.766;2023-04-26T01:21:11;101764.0;;;4.33;95.98
64453;BME280;50813;52.654;6.766;2023-04-26T01:24:23;101765.0;;;4.34;96.32
64453;BME280;50813;52.654;6.766;2023-04-26T01:25:59;101765.0;;;4.39;95.74
64453;BME280;50813;52.654;6.766;2023-04-26T01:27:35;101764.0;;;4.41;95.29
64453;BME280;50813;52.654;6.766;2023-04-26T01:30:50;101757.0;;;4.46;94.32
64453;BME280;50813;52.654;6.766;2023-04-26T01:32:26;101762.0;;;4.61;94.21
64453;BME280;50813;52.654;6.766;2023-04-26T01:34:02;101768.0;;;4.66;93.86
64453;BME280;50813;52.654;6.766;2023-04-26T01:37:15;101774.0;;;4.62;94.41
64453;BME280;50813;52.654;6.766;2023-04-26T01:38:51;101769.0;;;4.47;94.44
64453;BME280;50813;52.654;6.766;2023-04-26T01:40:27;101767.0;;;4.53;94.53
64453;BME280;50813;52.654;6.766;2023-04-26T01:42:04;101771.0;;;4.51;94.87
64453;BME280;50813;52.654;6.766;2023-04-26T01:45:16;101772.0;;;4.41;96.24
64453;BME280;50813;52.654;6.766;2023-04-26T01:46:53;101774.0;;;4.39;96.32
64453;BME280;50813;52.654;6.766;2023-04-26T01:48:29;101776.0;;;4.46;95.44
64453;BME280;50813;52.654;6.766;2023-04-26T01:51:42;101776.0;;;4.42;95.88
64453;BME280;50813;52.654;6.766;2023-04-26T01:53:18;101775.0;;;4.33;95.47
64453;BME280;50813;52.654;6.766;2023-04-26T01:54:55;101773.0;;;4.37;95.14
64453;BME280;50813;52.654;6.766;2023-04-26T01:58:07;101772.0;;;4.36;95.22
64453;BME280;50813;52.654;6.766;2023-04-26T01:59:43;101773.0;;;4.45;95.01
64453;BME280;50813;52.654;6.766;2023-04-26T02:01:20;101772.0;;;4.37;95.14
64453;BME280;50813;52.654;6.766;2023-04-26T02:02:56;101772.0;;;4.37;94.98
64453;BME280;50813;52.654;6.766;2023-04-26T02:06:10;101766.0;;;4.45;94.17
64453;BME280;50813;52.654;6.766;2023-04-26T02:07:46;101772.0;;;4.36;94.87
64453;BME280;50813;52.654;6.766;2023-04-26T02:09:22;101768.0;;;4.36;94.83
64453;BME280;50813;52.654;6.766;2023-04-26T02:12:35;101769.0;;;4.2;94.97
64453;BME280;50813;52.654;6.766;2023-04-26T02:14:11;101767.0;;;4.24;95.61
64453;BME280;50813;52.654;6.766;2023-04-26T02:15:47;101776.0;;;4.14;96.78
64453;BME280;50813;52.654;6.766;2023-04-26T02:19:02;101775.0;;;4.16;96.27
64453;BME280;50813;52.654;6.766;2023-04-26T02:20:39;101775.0;;;4.07;96.41
64453;BME280;50813;52.654;6.766;2023-04-26T02:22:15;101783.0;;;3.98;96.71
64453;BME280;50813;52.654;6.766;2023-04-26T02:23:51;101777.0;;;3.95;97.4
64453;BME280;50813;52.654;6.766;2023-04-26T02:27:04;101780.0;;;3.93;97.22
64453;BME280;50813;52.654;6.766;2023-04-26T02:28:40;101775.0;;;3.88;97.66
64453;BME280;50813;52.654;6.766;2023-04-26T02:30:17;101777.0;;;3.89;97.56
64453;BME280;50813;52.654;6.766;2023-04-26T02:33:29;101778.0;;;3.91;97.48
64453;BME280;50813;52.654;6.766;2023-04-26T02:35:06;101776.0;;;3.86;97.37
64453;BME280;50813;52.654;6.766;2023-04-26T02:36:42;101778.0;;;3.86;97.56
64453;BME280;50813;52.654;6.766;2023-04-26T02:39:54;101773.0;;;3.89;97.25
64453;BME280;50813;52.654;6.766;2023-04-26T02:41:31;101780.0;;;3.81;97.33
64453;BME280;50813;52.654;6.766;2023-04-26T02:43:08;101780.0;;;3.78;97.93
64453;BME280;50813;52.654;6.766;2023-04-26T02:44:44;101780.0;;;3.79;98.31
64453;BME280;50813;52.654;6.766;2023-04-26T02:47:59;101782.0;;;3.76;98.53
64453;BME280;50813;52.654;6.766;2023-04-26T02:49:35;101776.0;;;3.82;98.82
64453;BME280;50813;52.654;6.766;2023-04-26T02:51:11;101780.0;;;3.91;97.76
64453;BME280;50813;52.654;6.766;2023-04-26T02:54:24;101777.0;;;3.8;97.97
64453;BME280;50813;52.654;6.766;2023-04-26T02:56:00;101774.0;;;3.77;97.31
64453;BME280;50813;52.654;6.766;2023-04-26T02:57:36;101769.0;;;3.8;97.76
64453;BME280;50813;52.654;6.766;2023-04-26T03:00:48;101765.0;;;3.63;99.01
64453;BME280;50813;52.654;6.766;2023-04-26T03:02:24;101765.0;;;3.65;98.92
64453;BME280;50813;52.654;6.766;2023-04-26T03:04:00;101765.0;;;3.65;98.6
64453;BME280;50813;52.654;6.766;2023-04-26T03:05:36;101766.0;;;3.68;98.74
64453;BME280;50813;52.654;6.766;2023-04-26T03:08:50;101766.0;;;3.7;98.05
64453;BME280;50813;52.654;6.766;2023-04-26T03:10:26;101766.0;;;3.7;97.97
64453;BME280;50813;52.654;6.766;2023-04-26T03:12:02;101768.0;;;3.76;97.7
64453;BME280;50813;52.654;6.766;2023-04-26T03:15:14;101764.0;;;3.84;97.29
64453;BME280;50813;52.654;6.766;2023-04-26T03:16:50;101765.0;;;3.76;97.44
64453;BME280;50813;52.654;6.766;2023-04-26T03:18:26;101760.0;;;3.62;98.6
64453;BME280;50813;52.654;6.766;2023-04-26T03:21:40;101758.0;;;3.74;98.14
64453;BME280;50813;52.654;6.766;2023-04-26T03:23:16;101762.0;;;3.71;98.41
64453;BME280;50813;52.654;6.766;2023-04-26T03:24:52;101761.0;;;3.73;97.76
64453;BME280;50813;52.654;6.766;2023-04-26T03:28:04;101762.0;;;3.73;97.51
64453;BME280;50813;52.654;6.766;2023-04-26T03:29:40;101760.0;;;3.66;98.47
64453;BME280;50813;52.654;6.766;2023-04-26T03:31:16;101764.0;;;3.68;97.96
64453;BME280;50813;52.654;6.766;2023-04-26T03:32:53;101762.0;;;3.57;99.32
64453;BME280;50813;52.654;6.766;2023-04-26T03:36:06;101763.0;;;3.5;99.78
64453;BME280;50813;52.654;6.766;2023-04-26T03:37:43;101766.0;;;3.61;99.58
64453;BME280;50813;52.654;6.766;2023-04-26T03:39:19;101764.0;;;3.65;98.59
64453;BME280;50813;52.654;6.766;2023-04-26T03:42:31;101762.0;;;3.61;98.89
64453;BME280;50813;52.654;6.766;2023-04-26T03:44:07;101761.0;;;3.56;98.36
64453;BME280;50813;52.654;6.766;2023-04-26T03:45:45;101761.0;;;3.53;98.92
64453;BME280;50813;52.654;6.766;2023-04-26T03:48:58;101759.0;;;3.44;98.49
64453;BME280;50813;52.654;6.766;2023-04-26T03:50:34;101760.0;;;3.54;98.07
64453;BME280;50813;52.654;6.766;2023-04-26T03:52:10;101756.0;;;3.61;97.92
64453;BME280;50813;52.654;6.766;2023-04-26T03:53:46;101760.0;;;3.43;98.08
64453;BME280;50813;52.654;6.766;2023-04-26T03:56:58;101758.0;;;3.37;99.53
64453;BME280;50813;52.654;6.766;2023-04-26T03:58:34;101762.0;;;3.42;99.93
64453;BME280;50813;52.654;6.766;2023-04-26T04:00:12;101756.0;;;3.3;100.0
64453;BME280;50813;52.654;6.766;2023-04-26T04:03:24;101758.0;;;3.3;100.0
64453;BME280;50813;52.654;6.766;2023-04-26T04:05:00;101762.0;;;3.4;100.0
64453;BME280;50813;52.654;6.766;2023-04-26T04:06:36;101762.0;;;3.37;100.0
64453;BME280;50813;52.654;6.766;2023-04-26T04:09:49;101762.0;;;3.3;100.0
64453;BME280;50813;52.654;6.766;2023-04-26T04:11:24;101764.0;;;3.25;100.0
64453;BME280;50813;52.654;6.766;2023-04-26T04:13:00;101762.0;;;3.36;100.0
64453;BME280;50813;52.654;6.766;2023-04-26T04:16:13;101765.0;;;3.42;100.0
64453;BME280;50813;52.654;6.766;2023-04-26T04:17:49;101762.0;;;3.45;100.0
64453;BME280;50813;52.654;6.766;2023-04-26T04:19:25;101763.0;;;3.47;100.0
64453;BME280;50813;52.654;6.766;2023-04-26T04:21:02;101760.0;;;3.34;100.0
64453;BME280;50813;52.654;6.766;2023-04-26T04:24:15;101765.0;;;3.42;100.0
64453;BME280;50813;52.654;6.766;2023-04-26T04:25:50;101761.0;;;3.45;100.0
64453;BME280;50813;52.654;6.766;2023-04-26T04:27:27;101764.0;;;3.39;100.0
64453;BME280;50813;52.654;6.766;2023-04-26T04:30:40;101765.0;;;3.49;100.0
64453;BME280;50813;52.654;6.766;2023-04-26T04:32:16;101763.0;;;3.55;100.0
64453;BME280;50813;52.654;6.766;2023-04-26T04:33:52;101769.0;;;3.68;100.0
64453;BME280;50813;52.654;6.766;2023-04-26T04:37:06;101770.0;;;3.58;100.0
64453;BME280;50813;52.654;6.766;2023-04-26T04:38:42;101770.0;;;3.57;100.0
64453;BME280;50813;52.654;6.766;2023-04-26T04:40:18;101776.0;;;3.61;100.0
64453;BME280;50813;52.654;6.766;2023-04-26T04:41:55;101778.0;;;3.57;100.0
64453;BME280;50813;52.654;6.766;2023-04-26T04:45:08;101776.0;;;3.63;100.0
64453;BME280;50813;52.654;6.766;2023-04-26T04:46:44;101774.0;;;3.68;100.0
64453;BME280;50813;52.654;6.766;2023-04-26T04:51:32;101769.0;;;3.74;100.0
64453;BME280;50813;52.654;6.766;2023-04-26T04:53:09;101773.0;;;3.79;100.0
64453;BME280;50813;52.654;6.766;2023-04-26T04:54:44;101773.0;;;3.74;100.0
64453;BME280;50813;52.654;6.766;2023-04-26T04:57:57;101774.0;;;3.88;100.0
64453;BME280;50813;52.654;6.766;2023-04-26T04:59:33;101775.0;;;3.9;100.0
64453;BME280;50813;52.654;6.766;2023-04-26T05:01:09;101778.0;;;3.81;100.0
64453;BME280;50813;52.654;6.766;2023-04-26T05:02:45;101781.0;;;3.91;100.0
64453;BME280;50813;52.654;6.766;2023-04-26T05:05:58;101782.0;;;3.88;100.0
64453;BME280;50813;52.654;6.766;2023-04-26T05:07:34;101784.0;;;3.85;100.0
64453;BME280;50813;52.654;6.766;2023-04-26T05:09:11;101786.0;;;3.95;100.0
64453;BME280;50813;52.654;6.766;2023-04-26T05:12:23;101786.0;;;4.03;100.0
64453;BME280;50813;52.654;6.766;2023-04-26T05:13:59;101788.0;;;3.84;100.0
64453;BME280;50813;52.654;6.766;2023-04-26T05:15:35;101794.0;;;3.95;100.0
64453;BME280;50813;52.654;6.766;2023-04-26T05:18:48;101791.0;;;3.92;100.0
64453;BME280;50813;52.654;6.766;2023-04-26T05:20:24;101789.0;;;3.96;100.0
64453;BME280;50813;52.654;6.766;2023-04-26T05:22:01;101788.0;;;4.04;100.0
64453;BME280;50813;52.654;6.766;2023-04-26T05:25:14;101790.0;;;4.12;100.0
64453;BME280;50813;52.654;6.766;2023-04-26T05:26:50;101794.0;;;4.1;100.0
64453;BME280;50813;52.654;6.766;2023-04-26T05:28:26;101798.0;;;4.14;100.0
64453;BME280;50813;52.654;6.766;2023-04-26T05:30:03;101799.0;;;4.2;100.0
64453;BME280;50813;52.654;6.766;2023-04-26T05:33:15;101799.0;;;4.12;100.0
64453;BME280;50813;52.654;6.766;2023-04-26T05:34:51;101797.0;;;4.42;100.0
64453;BME280;50813;52.654;6.766;2023-04-26T05:36:28;101799.0;;;4.46;100.0
64453;BME280;50813;52.654;6.766;2023-04-26T05:39:40;101802.0;;;4.59;100.0
64453;BME280;50813;52.654;6.766;2023-04-26T05:41:16;101803.0;;;4.62;99.86
64453;BME280;50813;52.654;6.766;2023-04-26T05:42:52;101801.0;;;4.63;99.95
64453;BME280;50813;52.654;6.766;2023-04-26T05:46:04;101798.0;;;4.82;99.9
64453;BME280;50813;52.654;6.766;2023-04-26T05:47:41;101800.0;;;4.93;99.61
64453;BME280;50813;52.654;6.766;2023-04-26T05:49:17;101798.0;;;4.99;99.81
64453;BME280;50813;52.654;6.766;2023-04-26T05:50:53;101805.0;;;4.99;97.87
64453;BME280;50813;52.654;6.766;2023-04-26T05:54:05;101805.0;;;5.3;98.26
64453;BME280;50813;52.654;6.766;2023-04-26T05:55:42;101807.0;;;5.43;97.76
64453;BME280;50813;52.654;6.766;2023-04-26T05:57:17;101806.0;;;5.56;95.41
64453;BME280;50813;52.654;6.766;2023-04-26T06:00:30;101813.0;;;5.65;94.92
64453;BME280;50813;52.654;6.766;2023-04-26T06:02:06;101806.0;;;5.82;94.33
64453;BME280;50813;52.654;6.766;2023-04-26T06:03:43;101814.0;;;6.1;92.97
64453;BME280;50813;52.654;6.766;2023-04-26T06:06:56;101811.0;;;6.34;92.34
64453;BME280;50813;52.654;6.766;2023-04-26T06:08:33;101807.0;;;6.46;92.99
64453;BME280;50813;52.654;6.766;2023-04-26T06:10:09;101814.0;;;6.58;90.21
64453;BME280;50813;52.654;6.766;2023-04-26T06:13:22;101815.0;;;6.5;88.12
64453;BME280;50813;52.654;6.766;2023-04-26T06:14:58;101819.0;;;6.57;88.28
64453;BME280;50813;52.654;6.766;2023-04-26T06:16:34;101815.0;;;6.69;88.62
64453;BME280;50813;52.654;6.766;2023-04-26T06:18:10;101818.0;;;6.65;87.96
64453;BME280;50813;52.654;6.766;2023-04-26T06:21:23;101822.0;;;6.72;88.62
64453;BME280;50813;52.654;6.766;2023-04-26T06:22:59;101820.0;;;6.69;88.82
64453;BME280;50813;52.654;6.766;2023-04-26T06:24:36;101825.0;;;6.69;88.35
64453;BME280;50813;52.654;6.766;2023-04-26T06:27:48;101823.0;;;6.78;89.72
64453;BME280;50813;52.654;6.766;2023-04-26T06:29:24;101824.0;;;6.8;88.96
64453;BME280;50813;52.654;6.766;2023-04-26T06:31:00;101827.0;;;6.77;89.46
64453;BME280;50813;52.654;6.766;2023-04-26T06:34:13;101824.0;;;6.87;88.54
64453;BME280;50813;52.654;6.766;2023-04-26T06:35:50;101826.0;;;6.91;87.96
64453;BME280;50813;52.654;6.766;2023-04-26T06:37:27;101828.0;;;7.03;86.54
64453;BME280;50813;52.654;6.766;2023-04-26T06:39:03;101830.0;;;7.11;87.37
64453;BME280;50813;52.654;6.766;2023-04-26T06:42:15;101828.0;;;7.15;87.53
64453;BME280;50813;52.654;6.766;2023-04-26T06:43:51;101825.0;;;7.22;86.56
64453;BME280;50813;52.654;6.766;2023-04-26T06:45:28;101823.0;;;7.35;85.43
64453;BME280;50813;52.654;6.766;2023-04-26T06:48:42;101821.0;;;7.18;84.56
64453;BME280;50813;52.654;6.766;2023-04-26T06:50:18;101821.0;;;7.12;84.44
64453;BME280;50813;52.654;6.766;2023-04-26T06:51:54;101821.0;;;6.98;85.06
64453;BME280;50813;52.654;6.766;2023-04-26T06:55:07;101824.0;;;7.0;85.38
64453;BME280;50813;52.654;6.766;2023-04-26T06:56:44;101824.0;;;7.03;84.93
64453;BME280;50813;52.654;6.766;2023-04-26T06:58:20;101822.0;;;6.92;85.72
64453;BME280;50813;52.654;6.766;2023-04-26T06:59:57;101820.0;;;7.0;85.82
64453;BME280;50813;52.654;6.766;2023-04-26T07:03:10;101821.0;;;7.24;86.07
64453;BME280;50813;52.654;6.766;2023-04-26T07:04:46;101820.0;;;7.46;84.16
64453;BME280;50813;52.654;6.766;2023-04-26T07:06:23;101824.0;;;7.6;82.76
64453;BME280;50813;52.654;6.766;2023-04-26T07:09:36;101830.0;;;7.9;82.88
64453;BME280;50813;52.654;6.766;2023-04-26T07:11:12;101830.0;;;7.82;79.83
64453;BME280;50813;52.654;6.766;2023-04-26T07:12:48;101827.0;;;8.11;82.96
64453;BME280;50813;52.654;6.766;2023-04-26T07:16:01;101835.0;;;8.15;78.91
64453;BME280;50813;52.654;6.766;2023-04-26T07:17:37;101836.0;;;8.23;78.88
64453;BME280;50813;52.654;6.766;2023-04-26T07:19:13;101831.0;;;8.4;79.97
64453;BME280;50813;52.654;6.766;2023-04-26T07:22:24;101835.0;;;8.44;77.69
64453;BME280;50813;52.654;6.766;2023-04-26T07:24:00;101842.0;;;8.25;76.52
64453;BME280;50813;52.654;6.766;2023-04-26T07:25:37;101835.0;;;8.39;77.64
64453;BME280;50813;52.654;6.766;2023-04-26T07:27:13;101839.0;;;8.55;76.52
64453;BME280;50813;52.654;6.766;2023-04-26T07:30:26;101840.0;;;8.71;77.02
64453;BME280;50813;52.654;6.766;2023-04-26T07:32:02;101837.0;;;8.9;75.14
64453;BME280;50813;52.654;6.766;2023-04-26T07:33:38;101839.0;;;9.0;75.31
64453;BME280;50813;52.654;6.766;2023-04-26T07:36:51;101835.0;;;8.99;74.94
64453;BME280;50813;52.654;6.766;2023-04-26T07:38:27;101833.0;;;8.89;74.37
64453;BME280;50813;52.654;6.766;2023-04-26T07:40:04;101834.0;;;8.92;73.5
64453;BME280;50813;52.654;6.766;2023-04-26T07:43:16;101830.0;;;8.89;73.66
64453;BME280;50813;52.654;6.766;2023-04-26T07:44:53;101833.0;;;9.05;73.16
64453;BME280;50813;52.654;6.766;2023-04-26T07:46:29;101834.0;;;9.06;71.41
64453;BME280;50813;52.654;6.766;2023-04-26T07:48:07;101831.0;;;8.99;72.84
64453;BME280;50813;52.654;6.766;2023-04-26T07:51:20;101836.0;;;8.78;71.36
64453;BME280;50813;52.654;6.766;2023-04-26T07:52:56;101832.0;;;8.88;73.08
64453;BME280;50813;52.654;6.766;2023-04-26T07:54:32;101836.0;;;8.93;70.91
64453;BME280;50813;52.654;6.766;2023-04-26T07:57:44;101837.0;;;9.13;74.19
64453;BME280;50813;52.654;6.766;2023-04-26T07:59:21;101836.0;;;9.18;71.83
64453;BME280;50813;52.654;6.766;2023-04-26T08:00:56;101836.0;;;9.39;72.22
64453;BME280;50813;52.654;6.766;2023-04-26T08:04:09;101838.0;;;9.58;71.38
64453;BME280;50813;52.654;6.766;2023-04-26T08:05:45;101841.0;;;9.55;70.49
64453;BME280;50813;52.654;6.766;2023-04-26T08:07:21;101840.0;;;9.73;70.94
64453;BME280;50813;52.654;6.766;2023-04-26T08:08:57;101842.0;;;9.76;70.09
64453;BME280;50813;52.654;6.766;2023-04-26T08:12:10;101841.0;;;9.74;68.2
64453;BME280;50813;52.654;6.766;2023-04-26T08:13:46;101846.0;;;9.82;71.41
64453;BME280;50813;52.654;6.766;2023-04-26T08:15:23;101846.0;;;9.71;70.48
64453;BME280;50813;52.654;6.766;2023-04-26T08:18:36;101849.0;;;9.57;69.66
64453;BME280;50813;52.654;6.766;2023-04-26T08:20:12;101850.0;;;9.56;70.42
64453;BME280;50813;52.654;6.766;2023-04-26T08:21:48;101846.0;;;9.22;68.55
64453;BME280;50813;52.654;6.766;2023-04-26T08:25:00;101846.0;;;9.09;70.48
64453;BME280;50813;52.654;6.766;2023-04-26T08:26:37;101853.0;;;9.13;72.05
64453;BME280;50813;52.654;6.766;2023-04-26T08:28:12;101852.0;;;9.19;73.03
64453;BME280;50813;52.654;6.766;2023-04-26T08:31:25;101852.0;;;8.97;71.5
64453;BME280;50813;52.654;6.766;2023-04-26T08:33:02;101855.0;;;9.1;71.13
64453;BME280;50813;52.654;6.766;2023-04-26T08:34:38;101855.0;;;9.07;72.25
64453;BME280;50813;52.654;6.766;2023-04-26T08:36:14;101859.0;;;9.19;72.52
64453;BME280;50813;52.654;6.766;2023-04-26T08:39:27;101857.0;;;9.24;74.13
64453;BME280;50813;52.654;6.766;2023-04-26T08:41:04;101855.0;;;9.11;72.27
64453;BME280;50813;52.654;6.766;2023-04-26T08:42:41;101855.0;;;9.14;70.95
64453;BME280;50813;52.654;6.766;2023-04-26T08:45:59;101855.0;;;9.31;70.37
64453;BME280;50813;52.654;6.766;2023-04-26T08:47:39;101859.0;;;9.46;71.5
64453;BME280;50813;52.654;6.766;2023-04-26T08:49:26;101855.0;;;9.25;69.62
64453;BME280;50813;52.654;6.766;2023-04-26T08:51:11;101851.0;;;9.73;71.09
64453;BME280;50813;52.654;6.766;2023-04-26T08:54:27;101852.0;;;9.48;65.41
64453;BME280;50813;52.654;6.766;2023-04-26T08:56:03;101855.0;;;10.0;68.64
64453;BME280;50813;52.654;6.766;2023-04-26T08:57:42;101859.0;;;10.39;70.41
64453;BME280;50813;52.654;6.766;2023-04-26T08:59:19;101855.0;;;10.51;65.33
64453;BME280;50813;52.654;6.766;2023-04-26T09:02:33;101853.0;;;10.28;61.67
64453;BME280;50813;52.654;6.766;2023-04-26T09:04:10;101860.0;;;10.38;63.95
64453;BME280;50813;52.654;6.766;2023-04-26T09:05:47;101857.0;;;10.14;59.83
64453;BME280;50813;52.654;6.766;2023-04-26T09:09:08;101858.0;;;10.11;66.45
64453;BME280;50813;52.654;6.766;2023-04-26T09:10:45;101860.0;;;10.0;62.82
64453;BME280;50813;52.654;6.766;2023-04-26T09:12:22;101853.0;;;9.76;64.99
64453;BME280;50813;52.654;6.766;2023-04-26T09:13:58;101857.0;;;9.61;64.53
64453;BME280;50813;52.654;6.766;2023-04-26T09:17:24;101855.0;;;9.57;64.77
64453;BME280;50813;52.654;6.766;2023-04-26T09:19:01;101857.0;;;9.59;66.2
64453;BME280;50813;52.654;6.766;2023-04-26T09:20:37;101856.0;;;9.36;66.05
64453;BME280;50813;52.654;6.766;2023-04-26T09:22:13;101858.0;;;9.48;66.78
64453;BME280;50813;52.654;6.766;2023-04-26T09:25:34;101860.0;;;9.31;65.6
64453;BME280;50813;52.654;6.766;2023-04-26T09:27:10;101861.0;;;9.39;68.5
64453;BME280;50813;52.654;6.766;2023-04-26T09:28:47;101855.0;;;9.43;68.98
64453;BME280;50813;52.654;6.766;2023-04-26T09:32:00;101862.0;;;9.39;70.27
64453;BME280;50813;52.654;6.766;2023-04-26T09:33:56;101862.0;;;9.32;70.58
64453;BME280;50813;52.654;6.766;2023-04-26T09:35:34;101863.0;;;9.13;68.95
64453;BME280;50813;52.654;6.766;2023-04-26T09:37:10;101866.0;;;9.17;70.27
64453;BME280;50813;52.654;6.766;2023-04-26T09:40:25;101861.0;;;9.33;71.25
64453;BME280;50813;52.654;6.766;2023-04-26T09:42:02;101867.0;;;9.33;70.81
64453;BME280;50813;52.654;6.766;2023-04-26T09:43:39;101862.0;;;9.43;68.69
64453;BME280;50813;52.654;6.766;2023-04-26T09:45:16;101859.0;;;9.71;68.91
64453;BME280;50813;52.654;6.766;2023-04-26T09:48:38;101852.0;;;9.73;68.8
64453;BME280;50813;52.654;6.766;2023-04-26T09:50:24;101851.0;;;9.94;66.37
64453;BME280;50813;52.654;6.766;2023-04-26T09:52:03;101855.0;;;10.0;66.59
64453;BME280;50813;52.654;6.766;2023-04-26T09:53:41;101856.0;;;10.19;67.95
64453;BME280;50813;52.654;6.766;2023-04-26T09:57:03;101859.0;;;10.16;67.05
64453;BME280;50813;52.654;6.766;2023-04-26T09:58:56;101860.0;;;10.48;69.44
64453;BME280;50813;52.654;6.766;2023-04-26T10:00:32;101852.0;;;10.7;66.91
64453;BME280;50813;52.654;6.766;2023-04-26T10:02:13;101848.0;;;10.91;66.22
64453;BME280;50813;52.654;6.766;2023-04-26T10:05:28;101849.0;;;10.88;60.53
64453;BME280;50813;52.654;6.766;2023-04-26T10:07:04;101845.0;;;11.13;62.7
64453;BME280;50813;52.654;6.766;2023-04-26T10:08:41;101844.0;;;11.04;59.79
64453;BME280;50813;52.654;6.766;2023-04-26T10:10:18;101844.0;;;11.58;62.31
64453;BME280;50813;52.654;6.766;2023-04-26T10:13:33;101846.0;;;11.84;59.93
64453;BME280;50813;52.654;6.766;2023-04-26T10:15:10;101839.0;;;11.31;55.58
64453;BME280;50813;52.654;6.766;2023-04-26T10:16:48;101837.0;;;11.11;57.08
64453;BME280;50813;52.654;6.766;2023-04-26T10:20:01;101844.0;;;11.1;58.15
64453;BME280;50813;52.654;6.766;2023-04-26T10:21:40;101841.0;;;10.75;59.2
64453;BME280;50813;52.654;6.766;2023-04-26T10:23:19;101842.0;;;10.61;60.91
64453;BME280;50813;52.654;6.766;2023-04-26T10:24:57;101842.0;;;10.06;62.39
64453;BME280;50813;52.654;6.766;2023-04-26T10:28:58;101844.0;;;9.98;64.11
64453;BME280;50813;52.654;6.766;2023-04-26T10:30:53;101847.0;;;9.68;64.1
64453;BME280;50813;52.654;6.766;2023-04-26T10:32:29;101845.0;;;9.67;65.09
64453;BME280;50813;52.654;6.766;2023-04-26T10:34:21;101843.0;;;9.59;63.71
64453;BME280;50813;52.654;6.766;2023-04-26T10:36:14;101843.0;;;9.76;66.02
64453;BME280;50813;52.654;6.766;2023-04-26T10:38:13;101838.0;;;9.93;66.72
64453;BME280;50813;52.654;6.766;2023-04-26T10:40:22;101838.0;;;10.23;67.11
64453;BME280;50813;52.654;6.766;2023-04-26T10:42:29;101833.0;;;10.39;63.76
64453;BME280;50813;52.654;6.766;2023-04-26T10:44:39;101834.0;;;10.88;68.27
64453;BME280;50813;52.654;6.766;2023-04-26T10:46:36;101832.0;;;11.14;66.25
64453;BME280;50813;52.654;6.766;2023-04-26T10:48:14;101824.0;;;11.11;59.82
64453;BME280;50813;52.654;6.766;2023-04-26T10:52:15;101827.0;;;11.26;64.0
64453;BME280;50813;52.654;6.766;2023-04-26T10:53:58;101828.0;;;11.27;61.07
64453;BME280;50813;52.654;6.766;2023-04-26T10:55:37;101827.0;;;11.52;60.18
64453;BME280;50813;52.654;6.766;2023-04-26T10:57:14;101821.0;;;12.06;64.44
64453;BME280;50813;52.654;6.766;2023-04-26T10:59:06;101818.0;;;12.3;58.88
64453;BME280;50813;52.654;6.766;2023-04-26T11:01:02;101820.0;;;12.63;57.91
64453;BME280;50813;52.654;6.766;2023-04-26T11:02:43;101815.0;;;12.72;57.34
64453;BME280;50813;52.654;6.766;2023-04-26T11:05:56;101821.0;;;12.34;55.33
64453;BME280;50813;52.654;6.766;2023-04-26T11:07:36;101821.0;;;12.11;51.35
64453;BME280;50813;52.654;6.766;2023-04-26T11:09:47;101825.0;;;11.67;52.1
64453;BME280;50813;52.654;6.766;2023-04-26T11:11:25;101831.0;;;11.73;55.64
64453;BME280;50813;52.654;6.766;2023-04-26T11:14:40;101831.0;;;11.44;52.74
64453;BME280;50813;52.654;6.766;2023-04-26T11:16:17;101837.0;;;10.95;56.99